sensor_id;sensor_type;location;lat;lon;timestamp;pressure;altitude;pressure_sealevel;temperature;humidity
64862;BME280;62652;42.274;-71.436;2023-03-21T00:00:00;101470.0;;;8.38888888888889;unknown
64862;BME280;62652;42.274;-71.436;2023-03-21T00:01:01;101460.0;;;8.38888888888889;unknown
64862;BME280;62652;42.274;-71.436;2023-03-21T00:02:00;101470.0;;;8.38888888888889;unknown
64862;BME280;62652;42.274;-71.436;2023-03-21T00:03:00;101470.0;;;8.38888888888889;unknown
64862;BME280;62652;42.274;-71.436;2023-03-21T00:04:00;101470.0;;;8.277777777777779;unknown
64862;BME280;62652;42.274;-71.436;2023-03-21T00:05:01;101480.0;;;8.277777777777779;unknown
64862;BME280;62652;42.274;-71.436;2023-03-21T00:06:04;101480.0;;;8.277777777777779;unknown
64862;BME280;62652;42.274;-71.436;2023-03-21T00:07:01;101470.0;;;8.222222222222221;unknown
64862;BME280;62652;42.274;-71.436;2023-03-21T00:08:00;101480.0;;;8.222222222222221;unknown
64862;BME280;62652;42.274;-71.436;2023-03-21T00:09:01;101480.0;;;8.11111111111111;unknown
64862;BME280;62652;42.274;-71.436;2023-03-21T00:10:00;101480.0;;;8.11111111111111;unknown
64862;BME280;62652;42.274;-71.436;2023-03-21T00:11:03;101480.0;;;8.11111111111111;unknown
64862;BME280;62652;42.274;-71.436;2023-03-21T00:12:00;101480.0;;;8.11111111111111;unknown
64862;BME280;62652;42.274;-71.436;2023-03-21T00:13:00;101480.0;;;8.0;unknown
64862;BME280;62652;42.274;-71.436;2023-03-21T00:14:00;101490.0;;;8.0;unknown
64862;BME280;62652;42.274;-71.436;2023-03-21T00:15:00;101490.0;;;7.88888888888889;unknown
64862;BME280;62652;42.274;-71.436;2023-03-21T00:16:04;101490.0;;;7.88888888888889;unknown
64862;BME280;62652;42.274;-71.436;2023-03-21T00:17:00;101490.0;;;7.88888888888889;unknown
64862;BME280;62652;42.274;-71.436;2023-03-21T00:18:01;101490.0;;;7.777777777777778;unknown
64862;BME280;62652;42.274;-71.436;2023-03-21T00:19:01;101490.0;;;7.777777777777778;unknown
64862;BME280;62652;42.274;-71.436;2023-03-21T00:20:02;101490.0;;;7.777777777777778;unknown
64862;BME280;62652;42.274;-71.436;2023-03-21T00:21:02;101500.0;;;7.722222222222222;unknown
64862;BME280;62652;42.274;-71.436;2023-03-21T00:22:00;101500.0;;;7.722222222222222;unknown
64862;BME280;62652;42.274;-71.436;2023-03-21T00:23:00;101500.0;;;7.722222222222222;unknown
64862;BME280;62652;42.274;-71.436;2023-03-21T00:24:00;101500.0;;;7.722222222222222;unknown
64862;BME280;62652;42.274;-71.436;2023-03-21T00:25:01;101500.0;;;7.6111111111111125;unknown
64862;BME280;62652;42.274;-71.436;2023-03-21T00:26:01;101500.0;;;7.5;unknown
64862;BME280;62652;42.274;-71.436;2023-03-21T00:27:00;101500.0;;;7.5;unknown
64862;BME280;62652;42.274;-71.436;2023-03-21T00:28:00;101500.0;;;7.3888888888888875;unknown
64862;BME280;62652;42.274;-71.436;2023-03-21T00:29:00;101500.0;;;7.3888888888888875;unknown
64862;BME280;62652;42.274;-71.436;2023-03-21T00:30:00;101500.0;;;7.3888888888888875;unknown
64862;BME280;62652;42.274;-71.436;2023-03-21T00:31:00;101500.0;;;7.277777777777778;unknown
64862;BME280;62652;42.274;-71.436;2023-03-21T00:32:00;101510.0;;;7.222222222222222;unknown
64862;BME280;62652;42.274;-71.436;2023-03-21T00:33:01;101510.0;;;7.277777777777778;unknown
64862;BME280;62652;42.274;-71.436;2023-03-21T00:34:01;101510.0;;;7.277777777777778;unknown
64862;BME280;62652;42.274;-71.436;2023-03-21T00:35:00;101510.0;;;7.222222222222222;unknown
64862;BME280;62652;42.274;-71.436;2023-03-21T00:36:01;101510.0;;;7.222222222222222;unknown
64862;BME280;62652;42.274;-71.436;2023-03-21T00:37:00;101510.0;;;7.222222222222222;unknown
64862;BME280;62652;42.274;-71.436;2023-03-21T00:38:00;101520.0;;;7.277777777777778;unknown
64862;BME280;62652;42.274;-71.436;2023-03-21T00:39:00;101520.0;;;7.222222222222222;unknown
64862;BME280;62652;42.274;-71.436;2023-03-21T00:40:00;101520.0;;;7.222222222222222;unknown
64862;BME280;62652;42.274;-71.436;2023-03-21T00:41:02;101520.0;;;7.222222222222222;unknown
64862;BME280;62652;42.274;-71.436;2023-03-21T00:42:01;101520.0;;;7.222222222222222;unknown
64862;BME280;62652;42.274;-71.436;2023-03-21T00:43:01;101520.0;;;7.11111111111111;unknown
64862;BME280;62652;42.274;-71.436;2023-03-21T00:44:01;101520.0;;;7.11111111111111;unknown
64862;BME280;62652;42.274;-71.436;2023-03-21T00:45:00;101520.0;;;7.11111111111111;unknown
64862;BME280;62652;42.274;-71.436;2023-03-21T00:46:00;101530.0;;;7.000000000000001;unknown
64862;BME280;62652;42.274;-71.436;2023-03-21T00:47:01;101520.0;;;7.000000000000001;unknown
64862;BME280;62652;42.274;-71.436;2023-03-21T00:48:00;101520.0;;;6.888888888888888;unknown
64862;BME280;62652;42.274;-71.436;2023-03-21T00:49:00;101520.0;;;6.888888888888888;unknown
64862;BME280;62652;42.274;-71.436;2023-03-21T00:50:01;101520.0;;;6.888888888888888;unknown
64862;BME280;62652;42.274;-71.436;2023-03-21T00:51:01;101520.0;;;6.888888888888888;unknown
64862;BME280;62652;42.274;-71.436;2023-03-21T00:52:01;101530.0;;;6.7777777777777795;unknown
64862;BME280;62652;42.274;-71.436;2023-03-21T00:53:00;101530.0;;;6.7777777777777795;unknown
64862;BME280;62652;42.274;-71.436;2023-03-21T00:54:00;101530.0;;;6.7777777777777795;unknown
64862;BME280;62652;42.274;-71.436;2023-03-21T00:55:00;101530.0;;;6.7777777777777795;unknown
64862;BME280;62652;42.274;-71.436;2023-03-21T00:56:01;101530.0;;;6.7777777777777795;unknown
64862;BME280;62652;42.274;-71.436;2023-03-21T00:57:00;101530.0;;;6.7777777777777795;unknown
64862;BME280;62652;42.274;-71.436;2023-03-21T00:58:01;101530.0;;;6.722222222222223;unknown
64862;BME280;62652;42.274;-71.436;2023-03-21T00:59:00;101530.0;;;6.722222222222223;unknown
64862;BME280;62652;42.274;-71.436;2023-03-21T01:00:00;101530.0;;;6.722222222222223;unknown
64862;BME280;62652;42.274;-71.436;2023-03-21T01:01:00;101530.0;;;6.722222222222223;unknown
64862;BME280;62652;42.274;-71.436;2023-03-21T01:02:01;101530.0;;;6.722222222222223;unknown
64862;BME280;62652;42.274;-71.436;2023-03-21T01:03:00;101540.0;;;6.722222222222223;unknown
64862;BME280;62652;42.274;-71.436;2023-03-21T01:04:01;101540.0;;;6.722222222222223;unknown
64862;BME280;62652;42.274;-71.436;2023-03-21T01:05:01;101540.0;;;6.722222222222223;unknown
64862;BME280;62652;42.274;-71.436;2023-03-21T01:06:00;101540.0;;;6.722222222222223;unknown
64862;BME280;62652;42.274;-71.436;2023-03-21T01:07:00;101550.0;;;6.722222222222223;unknown
64862;BME280;62652;42.274;-71.436;2023-03-21T01:08:00;101540.0;;;6.722222222222223;unknown
64862;BME280;62652;42.274;-71.436;2023-03-21T01:09:01;101540.0;;;6.722222222222223;unknown
64862;BME280;62652;42.274;-71.436;2023-03-21T01:10:01;101540.0;;;6.722222222222223;unknown
64862;BME280;62652;42.274;-71.436;2023-03-21T01:11:02;101550.0;;;6.611111111111111;unknown
64862;BME280;62652;42.274;-71.436;2023-03-21T01:12:02;101550.0;;;6.722222222222223;unknown
64862;BME280;62652;42.274;-71.436;2023-03-21T01:13:00;101550.0;;;6.611111111111111;unknown
64862;BME280;62652;42.274;-71.436;2023-03-21T01:14:00;101550.0;;;6.611111111111111;unknown
64862;BME280;62652;42.274;-71.436;2023-03-21T01:15:00;101560.0;;;6.611111111111111;unknown
64862;BME280;62652;42.274;-71.436;2023-03-21T01:16:01;101550.0;;;6.611111111111111;unknown
64862;BME280;62652;42.274;-71.436;2023-03-21T01:17:00;101550.0;;;6.611111111111111;unknown
64862;BME280;62652;42.274;-71.436;2023-03-21T01:18:01;101550.0;;;6.611111111111111;unknown
64862;BME280;62652;42.274;-71.436;2023-03-21T01:19:01;101560.0;;;6.611111111111111;unknown
64862;BME280;62652;42.274;-71.436;2023-03-21T01:20:01;101560.0;;;6.500000000000002;unknown
64862;BME280;62652;42.274;-71.436;2023-03-21T01:21:01;101560.0;;;6.611111111111111;unknown
64862;BME280;62652;42.274;-71.436;2023-03-21T01:22:01;101560.0;;;6.500000000000002;unknown
64862;BME280;62652;42.274;-71.436;2023-03-21T01:23:01;101570.0;;;6.500000000000002;unknown
64862;BME280;62652;42.274;-71.436;2023-03-21T01:24:01;101570.0;;;6.388888888888889;unknown
64862;BME280;62652;42.274;-71.436;2023-03-21T01:25:01;101570.0;;;6.388888888888889;unknown
64862;BME280;62652;42.274;-71.436;2023-03-21T01:26:00;101570.0;;;6.277777777777776;unknown
64862;BME280;62652;42.274;-71.436;2023-03-21T01:27:01;101570.0;;;6.388888888888889;unknown
64862;BME280;62652;42.274;-71.436;2023-03-21T01:28:01;101570.0;;;6.277777777777776;unknown
64862;BME280;62652;42.274;-71.436;2023-03-21T01:29:01;101570.0;;;6.277777777777776;unknown
64862;BME280;62652;42.274;-71.436;2023-03-21T01:30:00;101580.0;;;6.277777777777776;unknown
64862;BME280;62652;42.274;-71.436;2023-03-21T01:31:02;101570.0;;;6.222222222222224;unknown
64862;BME280;62652;42.274;-71.436;2023-03-21T01:32:00;101570.0;;;6.222222222222224;unknown
64862;BME280;62652;42.274;-71.436;2023-03-21T01:33:00;101570.0;;;6.222222222222224;unknown
64862;BME280;62652;42.274;-71.436;2023-03-21T01:34:00;101570.0;;;6.222222222222224;unknown
64862;BME280;62652;42.274;-71.436;2023-03-21T01:35:00;101580.0;;;6.222222222222224;unknown
64862;BME280;62652;42.274;-71.436;2023-03-21T01:36:01;101580.0;;;6.111111111111111;unknown
64862;BME280;62652;42.274;-71.436;2023-03-21T01:37:00;101570.0;;;6.222222222222224;unknown
64862;BME280;62652;42.274;-71.436;2023-03-21T01:38:01;101580.0;;;5.999999999999998;unknown
64862;BME280;62652;42.274;-71.436;2023-03-21T01:39:01;101580.0;;;5.999999999999998;unknown
64862;BME280;62652;42.274;-71.436;2023-03-21T01:40:01;101590.0;;;5.888888888888889;unknown
64862;BME280;62652;42.274;-71.436;2023-03-21T01:41:01;101590.0;;;5.888888888888889;unknown
64862;BME280;62652;42.274;-71.436;2023-03-21T01:42:00;101580.0;;;5.888888888888889;unknown
64862;BME280;62652;42.274;-71.436;2023-03-21T01:43:00;101590.0;;;5.888888888888889;unknown
64862;BME280;62652;42.274;-71.436;2023-03-21T01:44:01;101590.0;;;5.777777777777777;unknown
64862;BME280;62652;42.274;-71.436;2023-03-21T01:45:03;101590.0;;;5.7222222222222205;unknown
64862;BME280;62652;42.274;-71.436;2023-03-21T01:47:00;101590.0;;;5.7222222222222205;unknown
64862;BME280;62652;42.274;-71.436;2023-03-21T01:48:00;101590.0;;;5.611111111111112;unknown
64862;BME280;62652;42.274;-71.436;2023-03-21T01:49:03;101590.0;;;5.611111111111112;unknown
64862;BME280;62652;42.274;-71.436;2023-03-21T01:50:02;101600.0;;;5.611111111111112;unknown
64862;BME280;62652;42.274;-71.436;2023-03-21T01:51:00;101600.0;;;5.499999999999999;unknown
64862;BME280;62652;42.274;-71.436;2023-03-21T01:52:04;101590.0;;;5.499999999999999;unknown
64862;BME280;62652;42.274;-71.436;2023-03-21T01:53:00;101600.0;;;5.499999999999999;unknown
64862;BME280;62652;42.274;-71.436;2023-03-21T01:54:01;101600.0;;;5.499999999999999;unknown
64862;BME280;62652;42.274;-71.436;2023-03-21T01:55:01;101600.0;;;5.499999999999999;unknown
64862;BME280;62652;42.274;-71.436;2023-03-21T01:56:05;101600.0;;;5.499999999999999;unknown
64862;BME280;62652;42.274;-71.436;2023-03-21T01:57:04;101600.0;;;5.499999999999999;unknown
64862;BME280;62652;42.274;-71.436;2023-03-21T01:58:02;101600.0;;;5.38888888888889;unknown
64862;BME280;62652;42.274;-71.436;2023-03-21T01:59:05;101600.0;;;5.277777777777778;unknown
64862;BME280;62652;42.274;-71.436;2023-03-21T02:00:03;101600.0;;;5.277777777777778;unknown
64862;BME280;62652;42.274;-71.436;2023-03-21T02:01:01;101600.0;;;5.277777777777778;unknown
64862;BME280;62652;42.274;-71.436;2023-03-21T02:02:03;101600.0;;;5.222222222222221;unknown
64862;BME280;62652;42.274;-71.436;2023-03-21T02:03:02;101600.0;;;5.222222222222221;unknown
64862;BME280;62652;42.274;-71.436;2023-03-21T02:04:01;101600.0;;;5.222222222222221;unknown
64862;BME280;62652;42.274;-71.436;2023-03-21T02:05:02;101600.0;;;5.222222222222221;unknown
64862;BME280;62652;42.274;-71.436;2023-03-21T02:06:04;101600.0;;;5.222222222222221;unknown
64862;BME280;62652;42.274;-71.436;2023-03-21T02:07:03;101600.0;;;5.1111111111111125;unknown
64862;BME280;62652;42.274;-71.436;2023-03-21T02:08:01;101600.0;;;5.1111111111111125;unknown
64862;BME280;62652;42.274;-71.436;2023-03-21T02:09:04;101600.0;;;5.1111111111111125;unknown
64862;BME280;62652;42.274;-71.436;2023-03-21T02:10:02;101600.0;;;5.1111111111111125;unknown
64862;BME280;62652;42.274;-71.436;2023-03-21T02:11:01;101600.0;;;5.0;unknown
64862;BME280;62652;42.274;-71.436;2023-03-21T02:12:01;101600.0;;;5.0;unknown
64862;BME280;62652;42.274;-71.436;2023-03-21T02:13:03;101600.0;;;5.1111111111111125;unknown
64862;BME280;62652;42.274;-71.436;2023-03-21T02:14:01;101600.0;;;5.1111111111111125;unknown
64862;BME280;62652;42.274;-71.436;2023-03-21T02:15:01;101600.0;;;5.1111111111111125;unknown
64862;BME280;62652;42.274;-71.436;2023-03-21T02:16:07;101600.0;;;5.0;unknown
64862;BME280;62652;42.274;-71.436;2023-03-21T02:17:04;101600.0;;;5.0;unknown
64862;BME280;62652;42.274;-71.436;2023-03-21T02:18:06;101600.0;;;4.8888888888888875;unknown
64862;BME280;62652;42.274;-71.436;2023-03-21T02:19:14;101600.0;;;5.0;unknown
64862;BME280;62652;42.274;-71.436;2023-03-21T02:21:16;101600.0;;;4.8888888888888875;unknown
64862;BME280;62652;42.274;-71.436;2023-03-21T02:22:15;101600.0;;;4.777777777777779;unknown
64862;BME280;62652;42.274;-71.436;2023-03-21T02:23:16;101600.0;;;4.777777777777779;unknown
64862;BME280;62652;42.274;-71.436;2023-03-21T02:24:15;101600.0;;;4.777777777777779;unknown
64862;BME280;62652;42.274;-71.436;2023-03-21T02:27:07;101600.0;;;4.777777777777779;unknown
64862;BME280;62652;42.274;-71.436;2023-03-21T02:28:05;101600.0;;;4.777777777777779;unknown
64862;BME280;62652;42.274;-71.436;2023-03-21T02:29:05;101600.0;;;4.722222222222222;unknown
64862;BME280;62652;42.274;-71.436;2023-03-21T02:31:13;101600.0;;;4.61111111111111;unknown
64862;BME280;62652;42.274;-71.436;2023-03-21T02:32:06;101610.0;;;4.61111111111111;unknown
64862;BME280;62652;42.274;-71.436;2023-03-21T02:33:17;101610.0;;;4.61111111111111;unknown
64862;BME280;62652;42.274;-71.436;2023-03-21T02:35:16;101610.0;;;4.61111111111111;unknown
64862;BME280;62652;42.274;-71.436;2023-03-21T02:36:15;101610.0;;;4.61111111111111;unknown
64862;BME280;62652;42.274;-71.436;2023-03-21T02:37:04;101610.0;;;4.61111111111111;unknown
64862;BME280;62652;42.274;-71.436;2023-03-21T02:38:04;101610.0;;;4.61111111111111;unknown
64862;BME280;62652;42.274;-71.436;2023-03-21T02:39:07;101610.0;;;4.61111111111111;unknown
64862;BME280;62652;42.274;-71.436;2023-03-21T02:40:07;101610.0;;;4.61111111111111;unknown
64862;BME280;62652;42.274;-71.436;2023-03-21T02:41:05;101610.0;;;4.61111111111111;unknown
64862;BME280;62652;42.274;-71.436;2023-03-21T02:42:06;101610.0;;;4.500000000000001;unknown
64862;BME280;62652;42.274;-71.436;2023-03-21T02:43:03;101610.0;;;4.500000000000001;unknown
64862;BME280;62652;42.274;-71.436;2023-03-21T02:44:05;101610.0;;;4.500000000000001;unknown
64862;BME280;62652;42.274;-71.436;2023-03-21T02:45:05;101610.0;;;4.500000000000001;unknown
64862;BME280;62652;42.274;-71.436;2023-03-21T02:46:06;101610.0;;;4.500000000000001;unknown
64862;BME280;62652;42.274;-71.436;2023-03-21T02:47:03;101610.0;;;4.388888888888888;unknown
64862;BME280;62652;42.274;-71.436;2023-03-21T02:48:04;101600.0;;;4.388888888888888;unknown
64862;BME280;62652;42.274;-71.436;2023-03-21T02:49:06;101610.0;;;4.388888888888888;unknown
64862;BME280;62652;42.274;-71.436;2023-03-21T02:50:06;101600.0;;;4.388888888888888;unknown
64862;BME280;62652;42.274;-71.436;2023-03-21T02:51:01;101600.0;;;4.2777777777777795;unknown
64862;BME280;62652;42.274;-71.436;2023-03-21T02:52:02;101600.0;;;4.2777777777777795;unknown
64862;BME280;62652;42.274;-71.436;2023-03-21T02:53:02;101600.0;;;4.2777777777777795;unknown
64862;BME280;62652;42.274;-71.436;2023-03-21T02:54:04;101610.0;;;4.2777777777777795;unknown
64862;BME280;62652;42.274;-71.436;2023-03-21T02:55:02;101610.0;;;4.2777777777777795;unknown
64862;BME280;62652;42.274;-71.436;2023-03-21T02:56:00;101610.0;;;4.2777777777777795;unknown
64862;BME280;62652;42.274;-71.436;2023-03-21T02:57:01;101610.0;;;4.2777777777777795;unknown
64862;BME280;62652;42.274;-71.436;2023-03-21T02:58:01;101610.0;;;4.2777777777777795;unknown
64862;BME280;62652;42.274;-71.436;2023-03-21T02:59:02;101620.0;;;4.2777777777777795;unknown
64862;BME280;62652;42.274;-71.436;2023-03-21T03:00:01;101620.0;;;4.2777777777777795;unknown
64862;BME280;62652;42.274;-71.436;2023-03-21T03:01:00;101620.0;;;4.2777777777777795;unknown
64862;BME280;62652;42.274;-71.436;2023-03-21T03:02:01;101620.0;;;4.2777777777777795;unknown
64862;BME280;62652;42.274;-71.436;2023-03-21T03:03:01;101620.0;;;4.2777777777777795;unknown
64862;BME280;62652;42.274;-71.436;2023-03-21T03:04:01;101620.0;;;4.2777777777777795;unknown
64862;BME280;62652;42.274;-71.436;2023-03-21T03:05:00;101620.0;;;4.222222222222223;unknown
64862;BME280;62652;42.274;-71.436;2023-03-21T03:06:02;101620.0;;;4.222222222222223;unknown
64862;BME280;62652;42.274;-71.436;2023-03-21T03:07:12;101630.0;;;4.222222222222223;unknown
64862;BME280;62652;42.274;-71.436;2023-03-21T03:08:14;101620.0;;;4.222222222222223;unknown
64862;BME280;62652;42.274;-71.436;2023-03-21T03:09:14;101620.0;;;4.222222222222223;unknown
64862;BME280;62652;42.274;-71.436;2023-03-21T03:10:14;101620.0;;;4.222222222222223;unknown
64862;BME280;62652;42.274;-71.436;2023-03-21T03:11:11;101620.0;;;4.222222222222223;unknown
64862;BME280;62652;42.274;-71.436;2023-03-21T03:12:06;101620.0;;;4.111111111111111;unknown
64862;BME280;62652;42.274;-71.436;2023-03-21T03:13:09;101620.0;;;4.111111111111111;unknown
64862;BME280;62652;42.274;-71.436;2023-03-21T03:14:15;101620.0;;;4.111111111111111;unknown
64862;BME280;62652;42.274;-71.436;2023-03-21T03:15:10;101620.0;;;4.111111111111111;unknown
64862;BME280;62652;42.274;-71.436;2023-03-21T03:16:08;101630.0;;;4.111111111111111;unknown
64862;BME280;62652;42.274;-71.436;2023-03-21T03:17:12;101630.0;;;4.000000000000002;unknown
64862;BME280;62652;42.274;-71.436;2023-03-21T03:18:09;101620.0;;;4.000000000000002;unknown
64862;BME280;62652;42.274;-71.436;2023-03-21T03:19:01;101630.0;;;3.888888888888889;unknown
64862;BME280;62652;42.274;-71.436;2023-03-21T03:20:15;101630.0;;;3.888888888888889;unknown
64862;BME280;62652;42.274;-71.436;2023-03-21T03:21:05;101630.0;;;3.888888888888889;unknown
64862;BME280;62652;42.274;-71.436;2023-03-21T03:22:05;101630.0;;;3.888888888888889;unknown
64862;BME280;62652;42.274;-71.436;2023-03-21T03:23:09;101630.0;;;3.7777777777777763;unknown
64862;BME280;62652;42.274;-71.436;2023-03-21T03:24:03;101620.0;;;3.888888888888889;unknown
64862;BME280;62652;42.274;-71.436;2023-03-21T03:25:04;101620.0;;;3.888888888888889;unknown
64862;BME280;62652;42.274;-71.436;2023-03-21T03:26:03;101620.0;;;3.888888888888889;unknown
64862;BME280;62652;42.274;-71.436;2023-03-21T03:27:05;101620.0;;;3.7777777777777763;unknown
64862;BME280;62652;42.274;-71.436;2023-03-21T03:28:03;101620.0;;;3.7777777777777763;unknown
64862;BME280;62652;42.274;-71.436;2023-03-21T03:29:03;101620.0;;;3.888888888888889;unknown
64862;BME280;62652;42.274;-71.436;2023-03-21T03:30:02;101620.0;;;3.888888888888889;unknown
64862;BME280;62652;42.274;-71.436;2023-03-21T03:31:01;101620.0;;;3.888888888888889;unknown
64862;BME280;62652;42.274;-71.436;2023-03-21T03:32:04;101620.0;;;3.888888888888889;unknown
64862;BME280;62652;42.274;-71.436;2023-03-21T03:33:02;101620.0;;;3.7777777777777763;unknown
64862;BME280;62652;42.274;-71.436;2023-03-21T03:34:05;101620.0;;;3.7777777777777763;unknown
64862;BME280;62652;42.274;-71.436;2023-03-21T03:35:03;101620.0;;;3.888888888888889;unknown
64862;BME280;62652;42.274;-71.436;2023-03-21T03:36:01;101620.0;;;3.7777777777777763;unknown
64862;BME280;62652;42.274;-71.436;2023-03-21T03:37:03;101620.0;;;3.888888888888889;unknown
64862;BME280;62652;42.274;-71.436;2023-03-21T03:38:03;101620.0;;;3.7777777777777763;unknown
64862;BME280;62652;42.274;-71.436;2023-03-21T03:39:03;101620.0;;;3.7777777777777763;unknown
64862;BME280;62652;42.274;-71.436;2023-03-21T03:40:05;101620.0;;;3.7777777777777763;unknown
64862;BME280;62652;42.274;-71.436;2023-03-21T03:41:03;101620.0;;;3.7777777777777763;unknown
64862;BME280;62652;42.274;-71.436;2023-03-21T03:42:04;101620.0;;;3.7777777777777763;unknown
64862;BME280;62652;42.274;-71.436;2023-03-21T03:43:04;101610.0;;;3.7777777777777763;unknown
64862;BME280;62652;42.274;-71.436;2023-03-21T03:44:01;101620.0;;;3.7222222222222237;unknown
64862;BME280;62652;42.274;-71.436;2023-03-21T03:45:01;101620.0;;;3.7222222222222237;unknown
64862;BME280;62652;42.274;-71.436;2023-03-21T03:46:08;101610.0;;;3.7222222222222237;unknown
64862;BME280;62652;42.274;-71.436;2023-03-21T03:47:04;101610.0;;;3.7222222222222237;unknown
64862;BME280;62652;42.274;-71.436;2023-03-21T03:48:05;101610.0;;;3.7222222222222237;unknown
64862;BME280;62652;42.274;-71.436;2023-03-21T03:49:04;101610.0;;;3.7222222222222237;unknown
64862;BME280;62652;42.274;-71.436;2023-03-21T03:50:05;101610.0;;;3.7222222222222237;unknown
64862;BME280;62652;42.274;-71.436;2023-03-21T03:51:04;101610.0;;;3.7222222222222237;unknown
64862;BME280;62652;42.274;-71.436;2023-03-21T03:52:04;101620.0;;;3.7222222222222237;unknown
64862;BME280;62652;42.274;-71.436;2023-03-21T03:53:04;101620.0;;;3.7222222222222237;unknown
64862;BME280;62652;42.274;-71.436;2023-03-21T03:54:03;101620.0;;;3.7222222222222237;unknown
64862;BME280;62652;42.274;-71.436;2023-03-21T03:55:00;101620.0;;;3.7222222222222237;unknown
64862;BME280;62652;42.274;-71.436;2023-03-21T03:56:01;101620.0;;;3.7222222222222237;unknown
64862;BME280;62652;42.274;-71.436;2023-03-21T03:57:01;101620.0;;;3.7222222222222237;unknown
64862;BME280;62652;42.274;-71.436;2023-03-21T03:58:01;101620.0;;;3.7222222222222237;unknown
64862;BME280;62652;42.274;-71.436;2023-03-21T03:59:03;101610.0;;;3.7222222222222237;unknown
64862;BME280;62652;42.274;-71.436;2023-03-21T04:00:00;101610.0;;;3.7222222222222237;unknown
64862;BME280;62652;42.274;-71.436;2023-03-21T04:01:00;101610.0;;;3.7222222222222237;unknown
64862;BME280;62652;42.274;-71.436;2023-03-21T04:02:01;101610.0;;;3.7222222222222237;unknown
64862;BME280;62652;42.274;-71.436;2023-03-21T04:03:00;101610.0;;;3.611111111111111;unknown
64862;BME280;62652;42.274;-71.436;2023-03-21T04:04:00;101610.0;;;3.611111111111111;unknown
64862;BME280;62652;42.274;-71.436;2023-03-21T04:05:00;101610.0;;;3.611111111111111;unknown
64862;BME280;62652;42.274;-71.436;2023-03-21T04:06:01;101620.0;;;3.611111111111111;unknown
64862;BME280;62652;42.274;-71.436;2023-03-21T04:07:01;101620.0;;;3.4999999999999982;unknown
64862;BME280;62652;42.274;-71.436;2023-03-21T04:08:00;101620.0;;;3.4999999999999982;unknown
64862;BME280;62652;42.274;-71.436;2023-03-21T04:09:01;101620.0;;;3.4999999999999982;unknown
64862;BME280;62652;42.274;-71.436;2023-03-21T04:10:00;101620.0;;;3.4999999999999982;unknown
64862;BME280;62652;42.274;-71.436;2023-03-21T04:11:01;101620.0;;;3.4999999999999982;unknown
64862;BME280;62652;42.274;-71.436;2023-03-21T04:12:01;101620.0;;;3.4999999999999982;unknown
64862;BME280;62652;42.274;-71.436;2023-03-21T04:13:01;101620.0;;;3.4999999999999982;unknown
64862;BME280;62652;42.274;-71.436;2023-03-21T04:14:01;101630.0;;;3.4999999999999982;unknown
64862;BME280;62652;42.274;-71.436;2023-03-21T04:15:00;101620.0;;;3.4999999999999982;unknown
64862;BME280;62652;42.274;-71.436;2023-03-21T04:16:01;101620.0;;;3.4999999999999982;unknown
64862;BME280;62652;42.274;-71.436;2023-03-21T04:17:01;101630.0;;;3.3888888888888897;unknown
64862;BME280;62652;42.274;-71.436;2023-03-21T04:18:01;101630.0;;;3.3888888888888897;unknown
64862;BME280;62652;42.274;-71.436;2023-03-21T04:19:00;101630.0;;;3.3888888888888897;unknown
64862;BME280;62652;42.274;-71.436;2023-03-21T04:20:01;101630.0;;;3.3888888888888897;unknown
64862;BME280;62652;42.274;-71.436;2023-03-21T04:21:00;101630.0;;;3.3888888888888897;unknown
64862;BME280;62652;42.274;-71.436;2023-03-21T04:22:00;101630.0;;;3.3888888888888897;unknown
64862;BME280;62652;42.274;-71.436;2023-03-21T04:23:01;101630.0;;;3.3888888888888897;unknown
64862;BME280;62652;42.274;-71.436;2023-03-21T04:24:01;101630.0;;;3.3888888888888897;unknown
64862;BME280;62652;42.274;-71.436;2023-03-21T04:25:00;101630.0;;;3.3888888888888897;unknown
64862;BME280;62652;42.274;-71.436;2023-03-21T04:26:01;101630.0;;;3.277777777777777;unknown
64862;BME280;62652;42.274;-71.436;2023-03-21T04:27:00;101640.0;;;3.277777777777777;unknown
64862;BME280;62652;42.274;-71.436;2023-03-21T04:28:01;101640.0;;;3.2222222222222205;unknown